Greenville Spartanburg International Airport
KGSP : now visible

Airfield :











YOU CAN JOIN US ON...

 
LOGIN :

Register | Disclaimer

   EN    FR    IT 

 









Legend :    VFR   Marginal VFR   IFR   Intensive IFR   Very Intensive IFR
Visi :
Ceiling :
>= 8 km
>= 3000ft
5 to 8 km
1000 to 3000 ft
1500m to 5 km
500 to 1000 ft
800 to 1500m
200 to 500 ft
< 800m
< 200 ft
Symbols :   Thunderstorms  Fog  Heavy snow  Heavy precipitations  Wind > 20 kt






- Airport Elevation : 964 ft
- IATA code : GSP


KGSP - Greenville Spartanburg International

CURRENT METAR :
  • 191703Z 10008KT 10SM SCT021 BKN036 OVC044 25/19 A3009 RMK AO2 T02500189

EXPIRED METARs :
  • 191653Z 11011KT 10SM SCT021 BKN029 OVC037 24/19 A3009 RMK AO2 SLP177 T02440189
  • 191642Z 10009KT 10SM BKN021 BKN034 OVC049 25/19 A3009 RMK AO2 T02500189
  • 191603Z 12007KT 10SM SCT019 BKN044 OVC070 25/19 A3010 RMK AO2 T02500189
  • 191553Z 12009KT 10SM SCT019 BKN025 OVC043 25/19 A3010 RMK AO2 SLP180 T02500194
  • 191503Z 08007KT 10SM SCT019 BKN027 OVC047 24/19 A3010 RMK AO2 T02440194

TAF KGSP
Valid from the 19 at 18:00 until the 20 at 18:00 UTC


191741Z 1918/2018 11008KT P6SM VCSH SCT020 BKN035 OVC045
TEMPO 1918/1922 3SM -SHRA BR OVC020
FM192200 11004KT P6SM VCSH BKN045
FM200400 VRB02KT P6SM BKN010
PROB30 2004/2009 4SM -SHRA BR OVC006
FM200900 04002KT 5SM BR BKN005
FM201300 05003KT P6SM BKN008
FM201600 14005KT P6SM BKN020
KZTL FIR / North America



MET'MAP, your aeronautical weather chart ! - Copyright ORBIFLY December 2007 - Disclaimer

ORBIFLY MET'MAP TEAM :

Programming & Development : Alexandra Zaïnal
Original concept : Baudouin d'Aumeries
Technical & hardware support : Manuel Goepfert
Assistance : Marc-Olivier Méhu




SOURCES & CREDITS :

   NOAA       Earth
Advisory